Time;durP1;ratioP1;P1;durP2;ratioP2;P2;SDS_P1;SDS_P2;PMS_P1;PMS_P2;Temp;Humidity;BMP_temperature;BMP_pressure;BME280_temperature;BME280_humidity;BME280_pressure;Samples;Min_cycle;Max_cycle;Signal;HPM_P1;HPM_P2
2021/12/11 00:00:45;;;;;;;4.90;2.63;;;19.50;57.10;;;;;;6145977;22;92178;-56
2021/12/11 00:03:18;;;;;;;4.05;2.63;;;19.50;57.10;;;;;;6146716;22;94870;-56
2021/12/11 00:05:54;;;;;;;4.50;2.63;;;19.40;57.00;;;;;;6146911;22;93950;-56
2021/12/11 00:08:25;;;;;;;5.53;3.45;;;19.50;57.10;;;;;;6146994;22;92144;-56
2021/12/11 00:11:05;;;;;;;6.80;2.70;;;19.40;57.00;;;;;;6147806;22;91904;-56
2021/12/11 00:13:40;;;;;;;4.53;2.58;;;19.40;57.00;;;;;;6146116;22;94165;-56
2021/12/11 00:16:09;;;;;;;5.72;2.50;;;19.40;57.10;;;;;;6145625;22;92941;-56
2021/12/11 00:18:35;;;;;;;7.93;3.17;;;19.40;57.10;;;;;;6145634;22;93871;-56
2021/12/11 00:21:22;;;;;;;5.07;2.97;;;19.40;57.10;;;;;;6146450;22;92638;-56
2021/12/11 00:24:24;;;;;;;4.03;2.28;;;19.30;57.10;;;;;;6146270;22;93253;-57
2021/12/11 00:26:56;;;;;;;6.03;2.70;;;19.30;57.10;;;;;;6144883;22;92636;-57
2021/12/11 00:29:25;;;;;;;3.88;2.50;;;19.30;57.10;;;;;;6146737;22;92437;-57
2021/12/11 00:32:15;;;;;;;3.72;2.60;;;19.30;57.10;;;;;;6145959;22;92700;-57
2021/12/11 00:34:46;;;;;;;3.88;2.30;;;19.30;57.20;;;;;;6134484;22;95464;-56
2021/12/11 00:37:14;;;;;;;5.43;2.70;;;19.30;57.10;;;;;;6146364;22;91762;-56
2021/12/11 00:39:50;;;;;;;4.47;2.75;;;19.30;57.20;;;;;;6146733;22;92094;-59
2021/12/11 00:42:17;;;;;;;4.93;2.55;;;19.20;57.10;;;;;;6146149;22;92646;-56
2021/12/11 00:44:54;;;;;;;3.85;2.80;;;19.30;57.20;;;;;;6145320;22;95096;-57
2021/12/11 00:47:31;;;;;;;4.43;2.67;;;19.20;57.10;;;;;;6144359;22;96901;-56
2021/12/11 00:50:02;;;;;;;4.90;2.67;;;19.20;57.20;;;;;;6145440;22;92692;-56
2021/12/11 00:52:37;;;;;;;5.13;3.15;;;19.20;57.20;;;;;;6146121;22;92739;-56
2021/12/11 00:55:22;;;;;;;3.58;2.65;;;19.20;57.20;;;;;;6145562;22;95421;-56
2021/12/11 00:57:50;;;;;;;4.85;2.72;;;19.20;57.20;;;;;;6145940;22;93795;-56
2021/12/11 01:00:23;;;;;;;5.13;2.58;;;19.20;57.20;;;;;;6146469;22;92845;-56
2021/12/11 01:02:53;;;;;;;3.38;2.33;;;19.20;57.20;;;;;;6146309;22;91746;-56
2021/12/11 01:05:21;;;;;;;3.88;2.55;;;19.20;57.20;;;;;;6145733;22;93076;-56
2021/12/11 01:07:47;;;;;;;4.45;2.67;;;19.20;57.20;;;;;;6145692;22;93349;-56
2021/12/11 01:10:24;;;;;;;3.75;2.58;;;19.10;57.20;;;;;;6146598;22;93394;-56
2021/12/11 01:12:58;;;;;;;4.93;2.83;;;19.10;57.20;;;;;;6145507;22;92491;-56
2021/12/11 01:15:40;;;;;;;4.95;2.58;;;19.10;57.20;;;;;;6146182;22;92487;-56
2021/12/11 01:21:05;;;;;;;3.50;2.33;;;19.00;57.20;;;;;;6146112;22;92959;-56
2021/12/11 01:26:10;;;;;;;4.18;2.13;;;19.10;57.30;;;;;;6144924;22;93044;-57
2021/12/11 01:28:37;;;;;;;7.68;2.85;;;19.10;57.20;;;;;;6146574;22;92906;-56
2021/12/11 01:31:06;;;;;;;5.03;2.60;;;19.10;57.20;;;;;;6146846;22;92024;-56
2021/12/11 01:33:32;;;;;;;3.00;2.55;;;19.00;57.20;;;;;;6146391;22;92727;-56
2021/12/11 01:35:57;;;;;;;4.15;2.28;;;19.00;57.20;;;;;;6144783;22;93734;-57
2021/12/11 01:38:26;;;;;;;4.00;2.30;;;19.00;57.20;;;;;;6144443;22;96940;-56
2021/12/11 01:40:57;;;;;;;3.05;2.53;;;19.00;57.20;;;;;;6146157;22;92164;-57
2021/12/11 01:43:26;;;;;;;4.47;2.33;;;19.00;57.20;;;;;;6146277;22;91991;-56
2021/12/11 01:45:55;;;;;;;7.15;2.58;;;19.00;57.20;;;;;;6144859;22;94409;-56
2021/12/11 01:48:26;;;;;;;3.65;2.50;;;19.00;57.20;;;;;;6145615;22;92521;-56
2021/12/11 01:51:03;;;;;;;2.92;2.20;;;18.90;57.20;;;;;;6145151;22;92701;-56
2021/12/11 01:53:37;;;;;;;4.40;2.60;;;18.90;57.20;;;;;;6144529;22;92621;-56
2021/12/11 01:56:09;;;;;;;4.03;2.65;;;18.90;57.20;;;;;;6145679;22;93693;-56
2021/12/11 01:58:40;;;;;;;4.78;2.38;;;18.90;57.20;;;;;;6145683;22;93274;-56
2021/12/11 02:01:11;;;;;;;4.28;2.55;;;18.90;57.20;;;;;;6145252;22;94006;-56
2021/12/11 02:03:38;;;;;;;4.18;2.60;;;18.90;57.20;;;;;;6144436;22;92389;-56
2021/12/11 02:06:05;;;;;;;3.95;2.35;;;18.90;57.20;;;;;;6145073;22;93161;-56
2021/12/11 02:08:34;;;;;;;4.72;2.40;;;18.90;57.20;;;;;;6145280;22;93062;-56
2021/12/11 02:11:21;;;;;;;3.22;2.35;;;18.90;57.20;;;;;;6145483;22;92103;-56
2021/12/11 02:13:56;;;;;;;3.35;2.40;;;18.90;57.20;;;;;;6143983;22;92709;-57
2021/12/11 02:16:30;;;;;;;3.70;2.50;;;18.90;57.20;;;;;;6144812;22;92655;-56
2021/12/11 02:19:02;;;;;;;3.67;2.38;;;18.90;57.30;;;;;;6146125;22;93259;-56
2021/12/11 02:21:48;;;;;;;3.57;2.70;;;18.90;57.30;;;;;;6146181;22;92983;-56
2021/12/11 02:24:19;;;;;;;3.22;2.38;;;18.80;57.20;;;;;;6146295;22;92158;-56
2021/12/11 02:26:45;;;;;;;3.92;2.35;;;18.80;57.20;;;;;;6145735;22;96052;-57
2021/12/11 02:29:22;;;;;;;3.70;2.42;;;18.80;57.20;;;;;;6146056;22;92949;-56
2021/12/11 02:31:59;;;;;;;3.85;2.13;;;18.80;57.20;;;;;;6147514;22;92650;-56
2021/12/11 02:34:45;;;;;;;3.72;2.30;;;18.80;57.30;;;;;;6146461;22;92635;-56
2021/12/11 02:37:20;;;;;;;4.25;2.85;;;18.80;57.30;;;;;;6147242;22;94029;-57
2021/12/11 02:39:59;;;;;;;4.13;2.30;;;18.80;57.30;;;;;;6146820;22;94165;-56
2021/12/11 02:42:33;;;;;;;3.53;2.17;;;18.80;57.30;;;;;;6145783;22;92796;-56
2021/12/11 02:45:33;;;;;;;3.22;2.05;;;18.80;57.30;;;;;;6146626;22;92391;-56
2021/12/11 02:48:10;;;;;;;4.30;2.47;;;18.80;57.30;;;;;;6144870;22;93205;-56
2021/12/11 02:50:41;;;;;;;3.30;2.38;;;18.70;57.20;;;;;;6145253;22;92808;-57
2021/12/11 02:53:15;;;;;;;3.35;2.20;;;18.80;57.30;;;;;;6145539;22;93578;-56
2021/12/11 02:55:53;;;;;;;3.25;2.10;;;18.70;57.20;;;;;;6145711;22;92412;-57
2021/12/11 02:58:23;;;;;;;5.13;2.30;;;18.70;57.20;;;;;;6145113;22;92416;-56
2021/12/11 03:00:55;;;;;;;2.90;2.20;;;18.70;57.20;;;;;;6144816;22;93415;-58
2021/12/11 03:03:28;;;;;;;2.72;2.05;;;18.70;57.30;;;;;;6145627;22;92773;-57
2021/12/11 03:06:03;;;;;;;4.35;2.33;;;18.70;57.30;;;;;;6145252;22;92672;-57
2021/12/11 03:08:29;;;;;;;3.63;2.30;;;18.70;57.30;;;;;;6145886;22;94251;-57
2021/12/11 03:11:01;;;;;;;3.00;2.60;;;18.70;57.30;;;;;;6144714;22;91369;-57
2021/12/11 03:13:31;;;;;;;3.28;1.98;;;18.70;57.30;;;;;;6145166;22;92166;-56
2021/12/11 03:15:57;;;;;;;3.28;2.20;;;18.70;57.30;;;;;;6145780;22;92928;-57
2021/12/11 03:18:24;;;;;;;3.20;2.28;;;18.70;57.30;;;;;;6144480;22;93073;-57
2021/12/11 03:20:51;;;;;;;3.33;1.85;;;18.70;57.30;;;;;;6144612;22;93226;-57
2021/12/11 03:23:17;;;;;;;2.97;1.98;;;18.60;57.20;;;;;;6143929;22;92926;-57
2021/12/11 03:25:45;;;;;;;3.10;2.53;;;18.60;57.30;;;;;;6145753;22;92729;-57
2021/12/11 03:28:12;;;;;;;5.03;2.08;;;18.60;57.30;;;;;;6145970;22;92728;-57
2021/12/11 03:30:42;;;;;;;3.67;2.25;;;18.60;57.30;;;;;;6146840;22;92457;-56
2021/12/11 03:33:12;;;;;;;2.55;2.10;;;18.70;57.30;;;;;;6147453;22;93102;-57
2021/12/11 03:35:39;;;;;;;3.78;2.13;;;18.60;57.30;;;;;;6147812;22;92099;-56
2021/12/11 03:38:06;;;;;;;3.25;2.22;;;18.60;57.30;;;;;;6146035;22;93139;-56
2021/12/11 03:40:32;;;;;;;2.90;2.10;;;18.60;57.40;;;;;;6146307;22;92738;-57
2021/12/11 03:43:00;;;;;;;2.83;1.90;;;18.60;57.40;;;;;;6145374;22;93478;-56
2021/12/11 03:45:31;;;;;;;3.35;2.30;;;18.60;57.40;;;;;;6146167;22;92426;-56
2021/12/11 03:48:10;;;;;;;2.80;1.95;;;18.60;57.40;;;;;;6146661;22;93056;-57
2021/12/11 03:50:37;;;;;;;3.80;1.90;;;18.60;57.40;;;;;;6146412;22;92863;-57
2021/12/11 03:53:03;;;;;;;3.70;1.85;;;18.50;57.40;;;;;;6147412;22;92794;-56
2021/12/11 03:55:34;;;;;;;2.67;2.13;;;18.60;57.40;;;;;;6146118;22;93014;-56
2021/12/11 03:58:01;;;;;;;2.45;2.03;;;18.50;57.30;;;;;;6144601;22;93284;-56
2021/12/11 04:00:59;;;;;;;4.00;2.17;;;18.50;57.40;;;;;;6145564;22;92764;-57
2021/12/11 04:03:33;;;;;;;2.92;1.80;;;18.50;57.40;;;;;;6126808;22;93066;-58
2021/12/11 04:06:02;;;;;;;2.90;2.20;;;18.60;57.40;;;;;;6146527;22;92145;-56
2021/12/11 04:08:30;;;;;;;3.55;2.25;;;18.50;57.40;;;;;;6145161;22;94016;-56
2021/12/11 04:10:56;;;;;;;4.78;2.40;;;18.50;57.40;;;;;;6146108;22;93840;-57
2021/12/11 04:13:23;;;;;;;3.90;2.00;;;18.50;57.50;;;;;;6146713;22;92504;-57
2021/12/11 04:15:51;;;;;;;3.72;2.10;;;18.50;57.50;;;;;;6146808;22;92550;-56
2021/12/11 04:18:17;;;;;;;3.10;2.13;;;18.50;57.50;;;;;;6145507;22;93134;-57
2021/12/11 04:20:45;;;;;;;3.63;2.28;;;18.50;57.50;;;;;;6145404;22;92801;-57
2021/12/11 04:23:12;;;;;;;3.35;2.10;;;18.40;57.90;;;;;;6146852;22;92865;-57
2021/12/11 04:25:41;;;;;;;3.65;1.90;;;18.40;57.40;;;;;;6145464;22;92196;-56
2021/12/11 04:28:08;;;;;;;4.53;2.10;;;18.50;57.50;;;;;;6146992;22;93245;-56
2021/12/11 04:30:35;;;;;;;2.42;2.00;;;18.50;57.50;;;;;;6145834;22;93162;-56
2021/12/11 04:33:01;;;;;;;3.42;2.03;;;18.40;57.50;;;;;;6146281;22;93484;-56
2021/12/11 04:35:29;;;;;;;2.22;1.80;;;18.50;57.50;;;;;;6146074;22;93343;-56
2021/12/11 04:37:59;;;;;;;2.67;2.03;;;18.40;57.50;;;;;;6145026;22;92581;-56
2021/12/11 04:40:29;;;;;;;2.92;2.17;;;18.40;57.50;;;;;;6146636;22;93704;-56
2021/12/11 04:43:04;;;;;;;4.38;2.38;;;18.40;57.50;;;;;;6144801;22;93033;-56
2021/12/11 04:45:40;;;;;;;2.75;1.77;;;18.40;57.50;;;;;;6143840;22;93024;-56
2021/12/11 04:48:19;;;;;;;3.42;2.10;;;18.40;57.50;;;;;;6145169;22;93044;-56
2021/12/11 04:53:42;;;;;;;2.08;1.85;;;18.40;57.50;;;;;;6146632;22;93339;-56
2021/12/11 04:59:24;;;;;;;3.10;1.92;;;18.30;57.50;;;;;;6146496;22;93618;-56
2021/12/11 05:02:00;;;;;;;2.47;1.73;;;18.30;57.50;;;;;;6143987;22;94738;-57
2021/12/11 05:09:37;;;;;;;1.83;1.42;;;18.40;57.50;;;;;;6145357;22;92458;-56
2021/12/11 05:12:26;;;;;;;2.75;1.58;;;18.30;57.60;;;;;;6145964;22;92434;-56
2021/12/11 05:14:52;;;;;;;1.90;1.70;;;18.30;57.50;;;;;;6146157;22;92711;-57
2021/12/11 05:17:19;;;;;;;1.65;1.52;;;18.30;57.60;;;;;;6147228;22;92241;-57
2021/12/11 05:19:46;;;;;;;2.70;1.90;;;18.30;57.60;;;;;;6145554;22;92713;-57
2021/12/11 05:22:13;;;;;;;2.28;1.80;;;18.30;57.50;;;;;;6146132;22;92739;-57
2021/12/11 05:24:43;;;;;;;2.53;1.70;;;18.30;57.60;;;;;;6144701;22;93222;-57
2021/12/11 05:27:09;;;;;;;2.58;1.58;;;18.30;57.60;;;;;;6144338;22;92044;-57
2021/12/11 05:29:36;;;;;;;1.77;1.52;;;18.30;57.60;;;;;;6144142;22;92911;-57
2021/12/11 05:32:04;;;;;;;2.33;1.67;;;18.30;57.80;;;;;;6146919;22;93048;-57
2021/12/11 05:34:30;;;;;;;3.22;2.08;;;18.30;57.60;;;;;;6146450;22;92380;-57
2021/12/11 05:36:56;;;;;;;5.47;1.60;;;18.30;57.60;;;;;;6146065;22;92122;-57
2021/12/11 05:39:22;;;;;;;1.90;1.50;;;18.20;57.60;;;;;;6145813;22;93830;-56
2021/12/11 05:41:49;;;;;;;1.98;1.45;;;18.20;57.50;;;;;;6146244;22;93155;-57
2021/12/11 05:44:18;;;;;;;2.88;1.67;;;18.20;57.50;;;;;;6146431;22;93270;-56
2021/12/11 05:46:44;;;;;;;1.77;1.50;;;18.20;57.60;;;;;;6146438;22;93069;-56
2021/12/11 05:49:11;;;;;;;2.47;1.52;;;18.20;57.60;;;;;;6145374;22;93547;-57
2021/12/11 05:51:39;;;;;;;2.10;1.70;;;18.20;57.60;;;;;;6145509;22;92094;-56
2021/12/11 05:54:08;;;;;;;3.05;1.67;;;18.20;57.60;;;;;;6146389;22;92629;-56
2021/12/11 05:56:37;;;;;;;1.60;1.50;;;18.20;57.60;;;;;;6145586;22;92881;-56
2021/12/11 05:59:06;;;;;;;2.33;1.27;;;18.20;57.60;;;;;;6145796;22;93055;-57
2021/12/11 06:01:41;;;;;;;1.75;1.40;;;18.20;57.60;;;;;;6145806;22;92967;-57
2021/12/11 06:04:11;;;;;;;2.75;1.70;;;18.20;57.60;;;;;;6145620;22;92307;-56
2021/12/11 06:06:38;;;;;;;2.17;1.60;;;18.20;57.70;;;;;;6146594;22;91668;-57
2021/12/11 06:09:06;;;;;;;2.97;1.70;;;18.20;57.80;;;;;;6144522;22;93841;-57
2021/12/11 06:11:32;;;;;;;2.95;1.70;;;18.20;57.80;;;;;;6145687;22;93309;-56
2021/12/11 06:13:58;;;;;;;2.03;1.40;;;18.20;57.90;;;;;;6145845;22;93394;-57
2021/12/11 06:16:24;;;;;;;4.88;1.38;;;18.20;57.90;;;;;;6146265;22;92532;-57
2021/12/11 06:18:50;;;;;;;4.38;1.60;;;18.10;57.80;;;;;;6146354;22;94485;-58
2021/12/11 06:21:16;;;;;;;2.75;1.50;;;18.20;57.90;;;;;;6145973;22;92550;-57
2021/12/11 06:23:42;;;;;;;2.38;1.55;;;18.20;58.00;;;;;;6145255;22;92734;-57
2021/12/11 06:26:08;;;;;;;3.95;1.80;;;18.10;58.00;;;;;;6144884;22;92317;-56
2021/12/11 06:28:34;;;;;;;3.45;2.00;;;18.10;58.00;;;;;;6146416;22;92981;-57
2021/12/11 06:31:02;;;;;;;3.70;2.08;;;18.10;58.00;;;;;;6146360;22;93118;-57
2021/12/11 06:33:30;;;;;;;3.45;1.30;;;18.10;58.00;;;;;;6146114;22;92221;-57
2021/12/11 06:36:07;;;;;;;2.22;1.40;;;18.10;58.10;;;;;;6145590;22;92464;-56
2021/12/11 06:38:35;;;;;;;2.47;1.70;;;18.10;58.10;;;;;;6144101;22;94101;-57
2021/12/11 06:41:02;;;;;;;2.05;1.48;;;18.10;58.10;;;;;;6145366;22;93372;-56
2021/12/11 06:43:29;;;;;;;2.35;1.83;;;18.10;58.10;;;;;;6144873;22;92545;-57
2021/12/11 06:45:55;;;;;;;4.22;1.60;;;18.10;58.10;;;;;;6145926;22;92161;-57
2021/12/11 06:48:22;;;;;;;3.13;1.50;;;18.20;58.00;;;;;;6145745;22;93181;-57
2021/12/11 06:50:49;;;;;;;1.80;1.40;;;18.30;57.90;;;;;;6143767;22;95703;-58
2021/12/11 06:53:21;;;;;;;3.65;1.40;;;18.40;57.80;;;;;;6145778;22;92560;-57
2021/12/11 06:55:47;;;;;;;3.67;1.58;;;18.40;57.70;;;;;;6145881;22;91553;-57
2021/12/11 06:58:13;;;;;;;2.88;1.38;;;18.50;57.50;;;;;;6144603;22;92837;-57
2021/12/11 07:00:39;;;;;;;1.88;1.48;;;18.60;57.40;;;;;;6146067;22;92609;-57
2021/12/11 07:03:05;;;;;;;1.98;1.30;;;18.80;57.30;;;;;;6146042;22;93854;-57
2021/12/11 07:05:31;;;;;;;2.90;1.23;;;18.90;57.10;;;;;;6146086;22;92849;-57
2021/12/11 07:07:58;;;;;;;2.47;1.50;;;19.00;56.90;;;;;;6147646;22;93053;-57
2021/12/11 07:10:24;;;;;;;2.33;1.63;;;19.10;56.80;;;;;;6147380;22;94413;-57
2021/12/11 07:12:50;;;;;;;2.35;1.58;;;19.20;56.70;;;;;;6146693;22;92523;-56
2021/12/11 07:15:16;;;;;;;2.22;1.48;;;19.20;56.50;;;;;;6145980;22;92084;-56
2021/12/11 07:17:42;;;;;;;2.97;1.50;;;19.30;56.40;;;;;;6145697;22;92938;-57
2021/12/11 07:20:11;;;;;;;3.10;1.60;;;19.40;56.20;;;;;;6146498;22;92702;-57
2021/12/11 07:22:40;;;;;;;5.93;1.80;;;19.40;56.00;;;;;;6147318;22;92447;-56
2021/12/11 07:25:13;;;;;;;4.55;1.85;;;19.50;55.90;;;;;;6147171;22;92697;-57
2021/12/11 07:27:38;;;;;;;9.50;1.63;;;19.60;55.70;;;;;;6145603;22;93802;-57
2021/12/11 07:30:05;;;;;;;6.30;1.95;;;19.60;55.60;;;;;;6147390;22;95099;-57
2021/12/11 07:32:30;;;;;;;7.90;2.22;;;19.70;55.50;;;;;;6144934;22;92956;-56
2021/12/11 07:34:56;;;;;;;5.43;1.90;;;19.70;55.30;;;;;;6146868;22;92008;-57
2021/12/11 07:37:22;;;;;;;6.10;1.77;;;19.80;55.10;;;;;;6145533;22;92476;-57
2021/12/11 07:39:48;;;;;;;7.72;2.58;;;19.80;54.90;;;;;;6144814;22;94273;-57
2021/12/11 07:42:13;;;;;;;348.80;51.05;;;19.90;54.80;;;;;;6147295;22;92111;-57
2021/12/11 07:44:39;;;;;;;124.20;19.95;;;19.90;54.60;;;;;;6145933;22;92419;-60
2021/12/11 07:47:06;;;;;;;67.35;13.40;;;19.90;54.60;;;;;;6145409;22;93462;-58
2021/12/11 07:49:31;;;;;;;47.30;9.77;;;19.90;54.70;;;;;;6144640;22;93795;-60
2021/12/11 07:51:57;;;;;;;47.08;8.98;;;20.00;54.50;;;;;;6145969;22;93514;-60
2021/12/11 07:54:23;;;;;;;49.28;6.72;;;20.00;54.30;;;;;;6145903;22;92731;-60
2021/12/11 07:56:49;;;;;;;26.38;5.72;;;20.00;54.10;;;;;;6146035;22;92648;-59
2021/12/11 07:59:16;;;;;;;28.98;5.82;;;20.00;54.00;;;;;;6145613;22;92617;-60
2021/12/11 08:01:45;;;;;;;25.98;6.22;;;20.00;54.00;;;;;;6145148;22;92843;-61
2021/12/11 08:04:12;;;;;;;31.38;5.38;;;20.00;53.80;;;;;;6146436;22;92913;-61
2021/12/11 08:06:39;;;;;;;29.08;6.70;;;20.00;53.60;;;;;;6146061;22;92764;-60
2021/12/11 08:09:10;;;;;;;20.77;5.40;;;20.00;53.70;;;;;;6147179;22;92463;-59
2021/12/11 08:11:36;;;;;;;25.63;5.70;;;20.00;53.80;;;;;;6146881;22;92971;-60
2021/12/11 08:14:02;;;;;;;24.38;5.43;;;20.00;53.70;;;;;;6144187;22;92486;-59
2021/12/11 08:16:34;;;;;;;18.90;4.93;;;20.00;53.60;;;;;;6144717;22;93520;-60
2021/12/11 08:19:02;;;;;;;26.10;5.75;;;20.10;53.60;;;;;;6144455;22;98322;-62
2021/12/11 08:21:28;;;;;;;24.02;5.70;;;20.10;53.50;;;;;;6146610;22;92625;-61
2021/12/11 08:24:04;;;;;;;25.38;5.63;;;20.10;53.30;;;;;;6146111;22;91995;-60
2021/12/11 08:26:30;;;;;;;18.75;4.65;;;20.10;53.30;;;;;;6145176;22;92618;-62
2021/12/11 08:28:55;;;;;;;16.88;4.20;;;20.20;53.20;;;;;;6145478;22;92859;-60
2021/12/11 08:31:22;;;;;;;14.35;3.60;;;20.20;53.10;;;;;;6145843;22;91988;-59
2021/12/11 08:33:49;;;;;;;13.98;4.30;;;20.30;53.10;;;;;;6145465;22;91726;-60
2021/12/11 08:36:15;;;;;;;16.10;4.15;;;20.30;52.90;;;;;;6145171;22;92772;-61
2021/12/11 08:38:43;;;;;;;16.00;4.18;;;20.30;52.70;;;;;;6144149;22;93631;-62
2021/12/11 08:41:13;;;;;;;18.73;4.25;;;20.40;52.60;;;;;;6143905;22;93651;-59
2021/12/11 08:43:40;;;;;;;13.50;3.75;;;20.30;52.40;;;;;;6144461;22;92662;-60
2021/12/11 08:46:15;;;;;;;21.67;4.20;;;20.40;52.30;;;;;;6144526;22;96437;-61
2021/12/11 08:48:44;;;;;;;21.42;4.95;;;20.40;52.20;;;;;;6146556;22;92757;-60
2021/12/11 08:51:19;;;;;;;11.80;3.08;;;20.30;52.00;;;;;;6144931;22;93435;-60
2021/12/11 08:53:46;;;;;;;14.88;3.50;;;20.40;52.00;;;;;;6145495;22;92569;-61
2021/12/11 08:56:13;;;;;;;16.30;3.83;;;20.40;51.90;;;;;;6145916;22;96214;-60
2021/12/11 08:58:41;;;;;;;17.33;2.97;;;20.40;51.80;;;;;;6142582;22;93962;-60
2021/12/11 09:01:15;;;;;;;14.27;4.03;;;20.40;51.80;;;;;;6139222;22;92475;-60
2021/12/11 09:04:04;;;;;;;18.17;3.40;;;20.30;51.70;;;;;;6145844;22;92476;-60
2021/12/11 09:06:37;;;;;;;14.70;3.40;;;20.30;51.70;;;;;;6145403;22;93710;-60
2021/12/11 09:09:24;;;;;;;13.03;3.00;;;20.30;51.60;;;;;;6144942;22;94406;-60
2021/12/11 09:12:01;;;;;;;11.02;2.70;;;20.30;51.50;;;;;;6145394;22;92792;-60
2021/12/11 09:14:33;;;;;;;11.48;2.90;;;20.30;51.40;;;;;;6146577;22;93079;-60
2021/12/11 09:17:03;;;;;;;10.23;3.15;;;20.40;51.50;;;;;;6145200;22;96205;-60
2021/12/11 09:19:41;;;;;;;10.90;3.08;;;20.40;51.30;;;;;;6122004;22;92840;-59
2021/12/11 09:22:10;;;;;;;12.15;2.90;;;20.30;51.20;;;;;;6144153;22;92494;-60
2021/12/11 09:24:40;;;;;;;9.25;2.83;;;20.40;51.20;;;;;;6146041;22;91313;-60
2021/12/11 09:27:17;;;;;;;10.65;2.70;;;20.40;51.10;;;;;;6142989;22;92144;-60
2021/12/11 09:30:06;;;;;;;8.43;2.33;;;20.40;51.20;;;;;;6144969;22;92816;-61
2021/12/11 09:32:32;;;;;;;9.18;2.35;;;20.30;51.10;;;;;;6134302;22;93755;-60
2021/12/11 09:35:07;;;;;;;12.48;2.28;;;20.40;51.00;;;;;;6143366;22;92510;-60
2021/12/11 09:37:34;;;;;;;9.05;2.42;;;20.40;50.90;;;;;;6143787;22;92718;-58
2021/12/11 09:40:17;;;;;;;14.65;3.13;;;20.40;50.80;;;;;;6143782;22;96447;-61
2021/12/11 09:42:43;;;;;;;7.47;2.40;;;20.40;50.90;;;;;;6143323;22;92894;-63
2021/12/11 09:45:20;;;;;;;12.32;2.85;;;20.40;51.40;;;;;;6145123;22;92829;-62
2021/12/11 09:47:53;;;;;;;10.30;2.40;;;20.40;51.70;;;;;;6144219;22;93765;-63
2021/12/11 09:50:32;;;;;;;9.82;2.60;;;20.40;52.00;;;;;;6144182;22;93462;-63
2021/12/11 09:52:58;;;;;;;11.05;2.72;;;20.40;52.30;;;;;;6145659;22;92672;-63
2021/12/11 09:55:29;;;;;;;12.07;2.50;;;20.40;52.50;;;;;;6144695;22;92024;-61
2021/12/11 09:58:00;;;;;;;8.30;2.20;;;20.40;52.60;;;;;;6144310;22;93261;-62
2021/12/11 10:00:29;;;;;;;11.98;2.92;;;20.40;52.70;;;;;;6145485;22;93192;-62
2021/12/11 10:02:56;;;;;;;6.95;2.10;;;20.40;52.90;;;;;;6145295;22;92469;-62
2021/12/11 10:05:32;;;;;;;9.68;2.42;;;20.40;53.00;;;;;;6144663;22;93027;-60
2021/12/11 10:11:23;;;;;;;9.18;2.08;;;20.40;53.40;;;;;;6132621;22;93558;-63
2021/12/11 10:13:57;;;;;;;10.30;2.67;;;20.40;53.60;;;;;;6145481;22;92704;-62
2021/12/11 10:16:28;;;;;;;8.75;2.63;;;20.40;53.70;;;;;;6144591;22;91885;-62
2021/12/11 10:18:54;;;;;;;9.25;1.92;;;20.40;53.80;;;;;;6145171;22;92881;-62
2021/12/11 10:21:32;;;;;;;9.32;2.20;;;20.40;53.90;;;;;;6145164;22;92393;-61
2021/12/11 10:24:02;;;;;;;10.13;2.15;;;20.40;54.00;;;;;;6144046;22;92978;-61
2021/12/11 10:26:29;;;;;;;11.15;2.75;;;20.40;54.10;;;;;;6142789;22;92460;-63
2021/12/11 10:28:59;;;;;;;9.02;2.35;;;20.40;54.10;;;;;;6143932;22;92714;-62
2021/12/11 10:31:29;;;;;;;10.70;1.90;;;20.40;54.10;;;;;;6143376;22;95672;-62
2021/12/11 10:33:57;;;;;;;5.03;1.90;;;20.40;54.20;;;;;;6144405;22;92122;-62
2021/12/11 10:36:26;;;;;;;8.32;1.70;;;20.40;54.10;;;;;;6145487;22;92905;-61
2021/12/11 10:38:52;;;;;;;8.50;1.75;;;20.40;54.00;;;;;;6145795;22;92540;-62
2021/12/11 10:41:19;;;;;;;8.00;1.85;;;20.40;53.90;;;;;;6145497;22;96273;-62
2021/12/11 10:43:53;;;;;;;9.05;2.13;;;20.40;53.90;;;;;;6146086;22;92308;-63
2021/12/11 10:46:23;;;;;;;10.38;2.00;;;20.40;53.90;;;;;;6144863;22;92535;-61
2021/12/11 10:48:49;;;;;;;7.43;1.80;;;20.40;53.90;;;;;;6144203;22;97697;-62
2021/12/11 10:51:28;;;;;;;8.60;2.08;;;20.40;53.90;;;;;;6145157;22;93678;-60
2021/12/11 10:53:54;;;;;;;5.65;1.55;;;20.40;53.90;;;;;;6145157;22;92453;-60
2021/12/11 10:56:23;;;;;;;6.25;1.80;;;20.40;53.90;;;;;;6144820;22;92462;-62
2021/12/11 10:58:54;;;;;;;7.90;1.95;;;20.40;53.90;;;;;;6144766;22;95959;-62
2021/12/11 11:01:31;;;;;;;10.10;2.30;;;20.40;53.80;;;;;;6145835;22;92543;-61
2021/12/11 11:04:04;;;;;;;13.57;2.22;;;20.40;53.80;;;;;;6144044;22;92699;-62
2021/12/11 11:06:30;;;;;;;;;;;20.40;53.80;;;;;;6145812;22;92069;-61
2021/12/11 11:08:56;;;;;;;9.30;2.42;;;20.40;53.70;;;;;;6146576;22;96178;-61
2021/12/11 11:11:26;;;;;;;10.82;1.90;;;20.40;53.60;;;;;;6145659;22;93971;-64
2021/12/11 11:13:52;;;;;;;13.07;2.38;;;20.40;53.60;;;;;;6144500;22;93692;-61
2021/12/11 11:16:19;;;;;;;9.63;2.05;;;20.40;53.60;;;;;;6144816;22;92974;-62
2021/12/11 11:18:46;;;;;;;10.63;1.95;;;20.40;53.60;;;;;;6146078;22;94924;-62
2021/12/11 11:21:22;;;;;;;8.23;2.13;;;20.30;53.50;;;;;;6145152;22;95664;-62
2021/12/11 11:23:48;;;;;;;12.18;2.25;;;20.40;53.50;;;;;;6145174;22;92144;-62
2021/12/11 11:26:19;;;;;;;11.05;2.17;;;20.30;53.40;;;;;;6144326;22;92543;-62
2021/12/11 11:28:45;;;;;;;11.15;2.53;;;20.40;53.50;;;;;;6144484;22;95905;-61
2021/12/11 11:31:16;;;;;;;12.05;2.90;;;20.30;53.50;;;;;;6146746;22;92802;-62
2021/12/11 11:33:42;;;;;;;9.52;2.35;;;20.30;53.50;;;;;;6145229;22;92988;-62
2021/12/11 11:36:13;;;;;;;9.07;2.30;;;20.40;53.70;;;;;;6144319;22;92795;-63
2021/12/11 11:38:42;;;;;;;8.57;2.20;;;20.40;54.50;;;;;;6144849;22;94164;-62
2021/12/11 11:41:17;;;;;;;11.90;2.45;;;20.40;54.20;;;;;;6146090;22;93202;-64
2021/12/11 11:43:43;;;;;;;7.75;2.08;;;20.40;54.30;;;;;;6146560;22;92114;-63
2021/12/11 11:46:09;;;;;;;8.20;2.38;;;20.40;54.50;;;;;;6146351;22;92776;-62
2021/12/11 11:48:39;;;;;;;14.90;2.50;;;20.40;54.70;;;;;;6143776;22;96268;-63
2021/12/11 11:51:11;;;;;;;10.52;2.33;;;20.40;54.80;;;;;;6143562;22;94610;-62
2021/12/11 11:53:37;;;;;;;7.50;2.08;;;20.40;55.00;;;;;;6144713;22;92756;-63
2021/12/11 11:56:07;;;;;;;11.20;2.42;;;20.40;55.10;;;;;;6144791;22;91480;-64
2021/12/11 11:58:34;;;;;;;11.35;2.30;;;20.40;55.10;;;;;;6145950;22;92893;-63
2021/12/11 12:01:12;;;;;;;8.90;2.15;;;20.40;55.20;;;;;;6144754;22;94241;-61
2021/12/11 12:03:38;;;;;;;12.10;2.65;;;20.50;55.30;;;;;;6143650;22;93453;-61
2021/12/11 12:06:10;;;;;;;8.90;2.50;;;20.50;55.40;;;;;;6145414;22;92706;-62
2021/12/11 12:08:38;;;;;;;7.63;2.20;;;20.50;55.50;;;;;;6143409;22;93067;-60
2021/12/11 12:11:05;;;;;;;9.57;2.55;;;20.50;55.50;;;;;;6143780;22;94308;-62
2021/12/11 12:13:33;;;;;;;13.73;3.30;;;20.50;55.60;;;;;;6144401;22;92802;-63
2021/12/11 12:16:06;;;;;;;9.57;2.90;;;20.50;55.70;;;;;;6144868;22;92939;-61
2021/12/11 12:18:32;;;;;;;9.00;2.33;;;20.50;55.70;;;;;;6143428;22;93065;-61
2021/12/11 12:21:00;;;;;;;11.05;2.45;;;20.50;55.80;;;;;;6143767;22;92113;-60
2021/12/11 12:23:31;;;;;;;8.80;2.53;;;20.50;55.70;;;;;;6145263;22;92114;-62
2021/12/11 12:26:02;;;;;;;8.98;2.15;;;20.50;55.70;;;;;;6145132;22;92468;-62
2021/12/11 12:28:29;;;;;;;13.77;3.00;;;20.50;55.70;;;;;;6144235;22;97456;-62
2021/12/11 12:31:00;;;;;;;10.60;2.63;;;20.50;55.70;;;;;;6144726;22;96249;-62
2021/12/11 12:33:28;;;;;;;7.75;2.88;;;20.50;55.80;;;;;;6144983;22;92919;-62
2021/12/11 12:35:54;;;;;;;6.55;2.00;;;20.50;55.80;;;;;;6144798;22;92952;-62
2021/12/11 12:38:22;;;;;;;10.13;2.38;;;20.50;55.80;;;;;;6145287;22;93117;-62
2021/12/11 12:41:02;;;;;;;9.45;2.47;;;20.50;55.90;;;;;;6134034;22;96942;-61
2021/12/11 12:43:55;;;;;;;6.70;2.40;;;20.60;55.90;;;;;;6143393;22;92678;-62
2021/12/11 12:47:01;;;;;;;8.05;2.55;;;20.50;55.90;;;;;;6143881;22;91460;-62
2021/12/11 12:49:30;;;;;;;10.27;2.63;;;20.60;56.10;;;;;;6143558;22;92654;-61
2021/12/11 12:52:03;;;;;;;9.55;3.00;;;20.60;56.10;;;;;;6145383;22;93007;-63
2021/12/11 12:54:29;;;;;;;11.50;1.92;;;20.60;56.20;;;;;;6144256;22;93386;-62
2021/12/11 12:57:07;;;;;;;12.18;2.85;;;20.60;56.30;;;;;;6143630;22;92479;-62
2021/12/11 12:59:36;;;;;;;8.55;2.20;;;20.50;56.40;;;;;;6084515;22;93039;-64
2021/12/11 13:02:18;;;;;;;9.68;2.80;;;20.60;56.40;;;;;;6143972;22;92790;-62
2021/12/11 13:05:03;;;;;;;9.95;2.25;;;20.50;56.40;;;;;;6143976;22;92632;-62
2021/12/11 13:07:29;;;;;;;7.90;1.98;;;20.60;56.50;;;;;;6144621;22;92716;-61
2021/12/11 13:09:58;;;;;;;9.35;2.35;;;20.60;56.70;;;;;;6143585;22;92536;-63
2021/12/11 13:12:27;;;;;;;8.02;2.20;;;20.60;56.70;;;;;;6143646;22;95659;-62
2021/12/11 13:14:57;;;;;;;9.00;3.08;;;20.60;56.80;;;;;;6140218;22;92486;-62
2021/12/11 13:17:27;;;;;;;8.25;2.70;;;20.50;56.70;;;;;;6143840;22;92732;-62
2021/12/11 13:19:58;;;;;;;8.88;2.50;;;20.60;56.70;;;;;;6142295;22;96495;-62
2021/12/11 13:22:35;;;;;;;10.52;2.20;;;20.60;56.60;;;;;;6144215;22;93676;-63